createdAt,value
2022-10-11T00:00:54.768Z,16.83
2022-10-11T00:03:22.826Z,17.11
2022-10-11T00:05:50.434Z,17.03
2022-10-11T00:08:17.944Z,16.96
2022-10-11T00:10:45.529Z,16.93
2022-10-11T00:13:14.129Z,16.88
2022-10-11T00:15:41.925Z,16.76
2022-10-11T00:18:09.557Z,16.86
2022-10-11T00:20:37.537Z,16.69
2022-10-11T00:23:05.103Z,16.62
2022-10-11T00:25:33.040Z,16.54
2022-10-11T00:28:00.569Z,16.46
2022-10-11T00:30:28.221Z,16.41
2022-10-11T00:32:56.047Z,16.56
2022-10-11T00:35:23.713Z,16.49
2022-10-11T00:37:51.484Z,16.37
2022-10-11T00:40:22.153Z,16.21
2022-10-11T00:42:49.764Z,16.21
2022-10-11T00:45:32.578Z,16.22
2022-10-11T00:48:14.694Z,16.20
2022-10-11T00:50:43.178Z,16.19
2022-10-11T00:53:12.588Z,16.14
2022-10-11T00:55:53.348Z,16.10
2022-10-11T00:58:24.189Z,16.15
2022-10-11T01:00:52.084Z,16.20
2022-10-11T01:03:22.369Z,16.19
2022-10-11T01:05:50.026Z,16.20
2022-10-11T01:08:17.531Z,16.26
2022-10-11T01:10:45.667Z,16.13
2022-10-11T01:13:48.342Z,16.10
2022-10-11T01:16:44.126Z,15.96
2022-10-11T01:19:20.591Z,16.09
2022-10-11T01:22:23.613Z,15.94
2022-10-11T01:25:12.960Z,15.89
2022-10-11T01:28:18.525Z,15.89
2022-10-11T01:30:47.129Z,15.73
2022-10-11T01:33:57.325Z,15.78
2022-10-11T01:36:34.613Z,15.74
2022-10-11T01:39:18.720Z,16.04
2022-10-11T01:41:54.822Z,15.73
2022-10-11T01:44:25.215Z,15.48
2022-10-11T01:46:54.043Z,15.41
2022-10-11T01:49:21.978Z,15.45
2022-10-11T01:51:54.006Z,15.55
2022-10-11T01:55:08.090Z,15.63
2022-10-11T01:57:59.763Z,15.35
2022-10-11T02:01:00.488Z,15.01
2022-10-11T02:04:01.800Z,15.35
2022-10-11T02:06:40.843Z,15.22
2022-10-11T02:09:37.903Z,15.22
2022-10-11T02:12:13.057Z,15.09
2022-10-11T02:14:47.951Z,15.13
2022-10-11T02:17:20.824Z,15.02
2022-10-11T02:19:53.739Z,15.02
2022-10-11T02:22:33.951Z,14.98
2022-10-11T02:25:07.770Z,15.07
2022-10-11T02:27:39.222Z,15.11
2022-10-11T02:30:12.208Z,15.22
2022-10-11T02:32:44.124Z,15.00
2022-10-11T02:35:13.345Z,14.84
2022-10-11T02:37:59.724Z,14.94
2022-10-11T02:40:33.178Z,15.40
2022-10-11T02:43:13.010Z,14.96
2022-10-11T02:45:51.374Z,14.75
2022-10-11T02:48:19.724Z,14.89
2022-10-11T02:50:48.090Z,15.06
2022-10-11T02:53:15.623Z,15.16
2022-10-11T02:55:43.103Z,14.80
2022-10-11T02:58:10.597Z,14.58
2022-10-11T03:00:38.080Z,14.47
2022-10-11T03:03:05.589Z,14.38
2022-10-11T03:05:37.325Z,14.39
2022-10-11T03:08:04.885Z,14.36
2022-10-11T03:10:33.894Z,14.56
2022-10-11T03:13:02.173Z,14.54
2022-10-11T03:15:30.132Z,14.57
2022-10-11T03:17:57.721Z,14.84
2022-10-11T03:20:26.214Z,14.56
2022-10-11T03:22:54.647Z,14.45
2022-10-11T03:25:22.174Z,14.24
2022-10-11T03:27:49.975Z,14.44
2022-10-11T03:30:18.471Z,14.35
2022-10-11T03:32:46.220Z,14.28
2022-10-11T03:35:13.786Z,14.42
2022-10-11T03:37:41.523Z,14.34
2022-10-11T03:40:10.153Z,14.45
2022-10-11T03:42:38.204Z,14.49
2022-10-11T03:45:08.992Z,14.33
2022-10-11T03:47:38.751Z,14.29
2022-10-11T03:50:08.833Z,14.42
2022-10-11T03:52:38.934Z,14.35
2022-10-11T03:55:07.433Z,14.30
2022-10-11T03:57:35.136Z,14.47
2022-10-11T04:00:02.866Z,14.27
2022-10-11T04:02:36.972Z,14.31
2022-10-11T04:05:07.785Z,14.23
2022-10-11T04:07:38.586Z,14.20
2022-10-11T04:10:07.281Z,14.37
2022-10-11T04:12:36.845Z,14.52
2022-10-11T04:15:05.762Z,14.49
2022-10-11T04:17:34.455Z,14.45
2022-10-11T04:20:02.076Z,14.41
2022-10-11T04:22:29.687Z,14.38
2022-10-11T04:24:57.364Z,14.38
2022-10-11T04:27:27.312Z,14.23
2022-10-11T04:29:55.191Z,14.15
2022-10-11T04:32:22.830Z,14.05
2022-10-11T04:34:51.384Z,14.23
2022-10-11T04:37:19.663Z,14.22
2022-10-11T04:39:47.247Z,14.27
2022-10-11T04:42:14.717Z,14.14
2022-10-11T04:44:42.280Z,14.09
2022-10-11T04:47:09.764Z,14.08
2022-10-11T04:49:37.295Z,14.28
2022-10-11T04:52:05.023Z,14.34
2022-10-11T04:54:32.674Z,14.48
2022-10-11T04:57:00.178Z,14.46
2022-10-11T04:59:29.105Z,14.48
2022-10-11T05:01:56.871Z,14.35
2022-10-11T05:04:24.613Z,14.38
2022-10-11T05:06:52.201Z,14.30
2022-10-11T05:09:20.138Z,14.38
2022-10-11T05:11:47.730Z,14.47
2022-10-11T05:14:15.357Z,14.45
2022-10-11T05:16:42.832Z,14.38
2022-10-11T05:19:10.595Z,14.59
2022-10-11T05:21:38.635Z,14.67
2022-10-11T05:24:07.072Z,14.77
2022-10-11T05:26:34.793Z,14.89
2022-10-11T05:29:02.722Z,15.08
2022-10-11T05:31:30.493Z,15.08
2022-10-11T05:33:58.110Z,15.16
2022-10-11T05:36:25.736Z,15.18
2022-10-11T05:38:53.207Z,15.30
2022-10-11T05:41:20.783Z,15.41
2022-10-11T05:43:48.239Z,15.55
2022-10-11T05:46:16.158Z,15.68
2022-10-11T05:48:43.737Z,15.81
2022-10-11T05:51:12.738Z,15.94
2022-10-11T05:53:40.724Z,16.07
2022-10-11T05:56:21.006Z,16.31
2022-10-11T05:58:48.668Z,16.32
2022-10-11T06:01:26.859Z,16.43
2022-10-11T06:03:55.908Z,16.67
2022-10-11T06:06:24.623Z,16.70
2022-10-11T06:08:52.164Z,16.71
2022-10-11T06:11:25.381Z,16.75
2022-10-11T06:14:00.425Z,16.85
2022-10-11T06:16:30.614Z,16.92
2022-10-11T06:18:58.393Z,16.79
2022-10-11T06:21:26.143Z,16.84
2022-10-11T06:23:59.871Z,17.01
2022-10-11T06:26:29.861Z,16.96
2022-10-11T06:28:57.716Z,16.81
2022-10-11T06:31:25.492Z,16.96
2022-10-11T06:33:52.973Z,17.06
2022-10-11T06:36:20.461Z,16.95
2022-10-11T06:38:51.014Z,16.93
2022-10-11T06:41:26.582Z,17.20
2022-10-11T06:43:54.289Z,16.96
2022-10-11T06:46:25.238Z,17.14
2022-10-11T06:48:56.199Z,17.16
2022-10-11T06:51:24.897Z,16.92
2022-10-11T06:53:55.909Z,16.74
2022-10-11T06:56:29.674Z,16.85
2022-10-11T06:58:59.476Z,17.31
2022-10-11T07:01:27.848Z,17.38
2022-10-11T07:03:58.031Z,17.34
2022-10-11T07:06:29.032Z,17.28
2022-10-11T07:08:57.508Z,17.22
2022-10-11T07:11:28.178Z,17.30
2022-10-11T07:14:03.017Z,17.62
2022-10-11T07:16:31.383Z,17.63
2022-10-11T07:19:01.824Z,17.85
2022-10-11T07:21:31.430Z,17.97
2022-10-11T07:23:59.753Z,17.91
2022-10-11T07:26:33.730Z,18.41
2022-10-11T07:29:08.851Z,17.75
2022-10-11T07:31:40.652Z,17.71
2022-10-11T07:34:09.151Z,17.66
2022-10-11T07:36:37.389Z,17.71
2022-10-11T07:39:07.338Z,17.74
2022-10-11T07:41:38.838Z,17.75
2022-10-11T07:44:08.494Z,18.09
2022-10-11T07:46:35.925Z,18.20
2022-10-11T07:49:03.531Z,18.34
2022-10-11T07:51:30.979Z,18.35
2022-10-11T07:54:00.510Z,18.83
2022-10-11T07:56:32.003Z,18.88
2022-10-11T07:59:03.653Z,18.70
2022-10-11T08:01:32.499Z,19.03
2022-10-11T08:04:00.606Z,19.26
2022-10-11T08:06:32.799Z,19.25
2022-10-11T08:09:02.045Z,19.35
2022-10-11T08:11:34.190Z,19.22
2022-10-11T08:14:05.204Z,19.37
2022-10-11T08:16:33.302Z,19.62
2022-10-11T08:19:03.125Z,19.44
2022-10-11T08:21:45.965Z,19.39
2022-10-11T08:24:14.120Z,19.50
2022-10-11T08:26:42.897Z,19.51
2022-10-11T08:29:10.603Z,19.67
2022-10-11T08:31:38.107Z,20.08
2022-10-11T08:34:05.621Z,20.21
2022-10-11T08:36:33.562Z,20.60
2022-10-11T08:39:04.604Z,20.85
2022-10-11T08:41:42.643Z,21.46
2022-10-11T08:44:46.112Z,21.17
2022-10-11T08:47:32.660Z,20.81
2022-10-11T08:50:02.727Z,20.71
2022-10-11T08:53:02.968Z,20.84
2022-10-11T08:55:46.130Z,21.08
2022-10-11T08:58:23.202Z,21.30
2022-10-11T09:00:56.210Z,21.40
2022-10-11T09:03:54.790Z,21.45
2022-10-11T09:06:27.571Z,21.60
2022-10-11T09:09:06.857Z,21.43
2022-10-11T09:11:55.820Z,21.46
2022-10-11T09:14:47.467Z,21.38
2022-10-11T09:17:32.927Z,21.43
2022-10-11T09:20:19.190Z,21.58
2022-10-11T09:23:20.761Z,21.31
2022-10-11T09:26:02.728Z,21.16
2022-10-11T09:29:11.564Z,21.21
2022-10-11T09:31:39.269Z,21.80
2022-10-11T09:34:14.237Z,21.58
2022-10-11T09:36:46.771Z,21.50
2022-10-11T09:39:35.629Z,21.11
2022-10-11T09:42:10.236Z,21.16
2022-10-11T09:44:57.429Z,21.26
2022-10-11T09:47:33.025Z,21.35
2022-10-11T09:50:18.024Z,21.51
2022-10-11T09:52:51.661Z,21.73
2022-10-11T09:56:02.881Z,21.60
2022-10-11T09:58:34.793Z,21.79
2022-10-11T10:01:08.536Z,22.22
2022-10-11T10:03:43.240Z,22.48
2022-10-11T10:06:17.520Z,22.13
2022-10-11T10:08:47.315Z,22.41
2022-10-11T10:11:15.980Z,22.42
2022-10-11T10:13:52.111Z,22.38
2022-10-11T10:16:39.951Z,22.07
2022-10-11T10:19:25.088Z,22.01
2022-10-11T10:21:56.449Z,21.92
2022-10-11T10:24:40.376Z,21.82
2022-10-11T10:27:26.614Z,22.09
2022-10-11T10:30:15.975Z,21.88
2022-10-11T10:33:16.922Z,21.84
2022-10-11T10:36:06.484Z,21.89
2022-10-11T10:38:43.193Z,21.99
2022-10-11T10:41:13.945Z,22.02
2022-10-11T10:43:52.833Z,22.05
2022-10-11T10:47:06.611Z,22.07
2022-10-11T10:50:04.316Z,22.21
2022-10-11T10:53:06.019Z,22.48
2022-10-11T10:56:24.042Z,22.47
2022-10-11T10:59:03.627Z,22.07
2022-10-11T11:01:45.450Z,22.00
2022-10-11T11:04:34.437Z,22.14
2022-10-11T11:07:35.405Z,22.32
2022-10-11T11:10:29.444Z,22.19
2022-10-11T11:13:08.829Z,22.20
2022-10-11T11:16:22.717Z,22.33
2022-10-11T11:19:05.428Z,22.38
2022-10-11T11:21:56.943Z,22.37
2022-10-11T11:24:58.520Z,22.65
2022-10-11T11:27:37.743Z,22.92
2022-10-11T11:30:10.730Z,22.85
2022-10-11T11:33:01.203Z,22.40
2022-10-11T11:35:43.054Z,22.28
2022-10-11T11:38:42.871Z,22.69
2022-10-11T11:41:41.277Z,22.35
2022-10-11T11:44:27.112Z,22.25
2022-10-11T11:47:11.904Z,22.01
2022-10-11T11:49:48.721Z,22.06
2022-10-11T11:52:35.300Z,22.26
2022-10-11T11:55:16.959Z,22.49
2022-10-11T11:58:07.258Z,22.57
2022-10-11T12:00:58.387Z,22.70
2022-10-11T12:03:32.254Z,22.54
2022-10-11T12:06:14.778Z,22.67
2022-10-11T12:08:47.560Z,22.31
2022-10-11T12:11:31.687Z,21.92
2022-10-11T12:14:04.656Z,21.82
2022-10-11T12:16:33.152Z,21.72
2022-10-11T12:19:03.840Z,21.50
2022-10-11T12:21:39.453Z,21.60
2022-10-11T12:24:24.118Z,21.80
2022-10-11T12:26:58.717Z,22.42
2022-10-11T12:29:50.173Z,22.28
2022-10-11T12:32:35.909Z,22.39
2022-10-11T12:35:31.686Z,21.85
2022-10-11T12:38:13.607Z,21.91
2022-10-11T12:40:43.069Z,21.93
2022-10-11T12:43:30.765Z,21.85
2022-10-11T12:46:15.767Z,21.70
2022-10-11T12:49:17.846Z,21.36
2022-10-11T12:52:16.193Z,21.80
2022-10-11T12:55:37.335Z,21.47
2022-10-11T12:58:38.835Z,21.91
2022-10-11T13:01:23.080Z,21.72
2022-10-11T13:04:04.158Z,21.81
2022-10-11T13:06:57.155Z,21.24
2022-10-11T13:09:39.398Z,21.06
2022-10-11T13:12:24.173Z,20.99
2022-10-11T13:15:09.758Z,21.20
2022-10-11T13:17:39.567Z,20.93
2022-10-11T13:20:20.762Z,20.94
2022-10-11T13:22:53.140Z,21.89
2022-10-11T13:25:25.157Z,21.45
2022-10-11T13:28:16.752Z,21.62
2022-10-11T13:30:52.384Z,21.49
2022-10-11T13:33:32.213Z,21.01
2022-10-11T13:36:03.983Z,21.31
2022-10-11T13:38:36.900Z,21.67
2022-10-11T13:41:08.687Z,21.15
2022-10-11T13:43:37.446Z,21.12
2022-10-11T13:46:05.790Z,20.82
2022-10-11T13:48:41.275Z,21.32
2022-10-11T13:51:30.302Z,21.24
2022-10-11T13:54:05.773Z,20.85
2022-10-11T13:56:46.657Z,20.67
2022-10-11T13:59:24.251Z,20.62
2022-10-11T14:01:59.014Z,20.63
2022-10-11T14:04:29.768Z,20.72
2022-10-11T14:07:03.167Z,20.49
2022-10-11T14:09:38.051Z,20.65
2022-10-11T14:12:33.580Z,20.36
2022-10-11T14:15:03.203Z,20.49
2022-10-11T14:17:48.885Z,20.09
2022-10-11T14:20:24.081Z,19.88
2022-10-11T14:22:53.255Z,19.98
2022-10-11T14:25:22.094Z,19.95
2022-10-11T14:27:51.245Z,19.93
2022-10-11T14:30:27.299Z,20.25
2022-10-11T14:33:01.555Z,20.24
2022-10-11T14:35:33.045Z,20.02
2022-10-11T14:38:01.090Z,19.95
2022-10-11T14:40:31.555Z,20.14
2022-10-11T14:43:02.110Z,19.90
2022-10-11T14:45:29.591Z,19.94
2022-10-11T14:47:57.371Z,20.01
2022-10-11T14:50:43.592Z,19.87
2022-10-11T14:53:12.131Z,19.85
2022-10-11T14:55:40.900Z,19.84
2022-10-11T14:58:10.947Z,19.71
2022-10-11T15:00:43.170Z,20.00
2022-10-11T15:03:13.986Z,19.94
2022-10-11T15:05:42.073Z,19.94
2022-10-11T15:08:09.820Z,19.88
2022-10-11T15:10:40.533Z,19.87
2022-10-11T15:13:09.397Z,19.66
2022-10-11T15:15:40.877Z,19.72
2022-10-11T15:18:13.044Z,19.77
2022-10-11T15:20:46.131Z,19.71
2022-10-11T15:23:25.208Z,19.66
2022-10-11T15:25:52.902Z,19.52
2022-10-11T15:28:31.503Z,19.47
2022-10-11T15:31:00.464Z,19.56
2022-10-11T15:33:28.095Z,19.61
2022-10-11T15:35:55.643Z,19.51
2022-10-11T15:38:25.723Z,19.41
2022-10-11T15:40:54.274Z,19.25
2022-10-11T15:43:25.018Z,19.19
2022-10-11T15:45:59.242Z,19.14
2022-10-11T15:48:29.245Z,19.20
2022-10-11T15:51:16.896Z,19.10
2022-10-11T15:53:45.876Z,19.20
2022-10-11T15:56:17.921Z,19.28
2022-10-11T15:58:45.608Z,19.27
2022-10-11T16:01:19.384Z,19.32
2022-10-11T16:03:50.351Z,19.22
2022-10-11T16:06:22.231Z,19.12
2022-10-11T16:08:50.155Z,19.04
2022-10-11T16:11:17.781Z,18.94
2022-10-11T16:13:45.475Z,19.04
2022-10-11T16:16:14.381Z,18.88
2022-10-11T16:18:41.944Z,18.72
2022-10-11T16:21:13.051Z,18.71
2022-10-11T16:23:41.740Z,18.63
2022-10-11T16:26:16.993Z,18.74
2022-10-11T16:28:44.876Z,18.49
2022-10-11T16:31:18.209Z,18.39
2022-10-11T16:33:46.435Z,18.54
2022-10-11T16:36:37.016Z,18.64
2022-10-11T16:39:18.563Z,18.62
2022-10-11T16:41:47.927Z,18.63
2022-10-11T16:44:22.609Z,18.39
2022-10-11T16:46:51.647Z,18.40
2022-10-11T16:49:26.714Z,18.43
2022-10-11T16:52:00.199Z,18.52
2022-10-11T16:54:30.441Z,18.49
2022-10-11T16:57:01.825Z,18.36
2022-10-11T16:59:33.244Z,18.72
2022-10-11T17:02:03.940Z,18.73
2022-10-11T17:04:34.464Z,18.73
2022-10-11T17:07:05.557Z,19.53
2022-10-11T17:09:44.150Z,19.10
2022-10-11T17:12:20.940Z,18.87
2022-10-11T17:14:51.955Z,18.19
2022-10-11T17:17:47.934Z,18.80
2022-10-11T17:20:18.150Z,18.43
2022-10-11T17:22:48.156Z,18.31
2022-10-11T17:25:18.145Z,17.98
2022-10-11T17:27:46.084Z,18.00
2022-10-11T17:30:14.092Z,17.90
2022-10-11T17:32:42.154Z,17.73
2022-10-11T17:35:12.892Z,17.76
2022-10-11T17:37:43.387Z,17.72
2022-10-11T17:40:11.444Z,17.79
2022-10-11T17:42:39.243Z,17.87
2022-10-11T17:45:13.891Z,17.76
2022-10-11T17:47:41.825Z,17.73
2022-10-11T17:50:09.763Z,17.63
2022-10-11T17:52:37.720Z,17.58
2022-10-11T17:55:05.587Z,17.74
2022-10-11T17:57:33.913Z,17.67
2022-10-11T18:00:03.937Z,17.61
2022-10-11T18:02:53.507Z,17.62
2022-10-11T18:05:26.481Z,17.75
2022-10-11T18:07:56.609Z,18.01
2022-10-11T18:10:25.042Z,17.94
2022-10-11T18:12:56.845Z,17.71
2022-10-11T18:15:24.625Z,17.66
2022-10-11T18:17:52.799Z,17.88
2022-10-11T18:20:20.739Z,17.84
2022-10-11T18:22:51.061Z,17.64
2022-10-11T18:25:19.017Z,17.54
2022-10-11T18:27:46.819Z,17.59
2022-10-11T18:30:15.157Z,17.53
2022-10-11T18:32:44.303Z,17.62
2022-10-11T18:35:13.556Z,17.66
2022-10-11T18:37:42.091Z,17.66
2022-10-11T18:40:13.197Z,17.76
2022-10-11T18:42:41.750Z,17.80
2022-10-11T18:45:10.640Z,17.78
2022-10-11T18:47:41.942Z,17.66
2022-10-11T18:50:10.837Z,17.51
2022-10-11T18:52:47.980Z,17.45
2022-10-11T18:55:49.070Z,17.71
2022-10-11T18:58:17.125Z,17.63
2022-10-11T19:00:47.695Z,17.48
2022-10-11T19:03:16.282Z,17.54
2022-10-11T19:05:43.751Z,17.47
2022-10-11T19:08:11.502Z,17.47
2022-10-11T19:10:39.023Z,17.49
2022-10-11T19:13:07.181Z,17.38
2022-10-11T19:15:38.972Z,17.37
2022-10-11T19:18:06.611Z,17.35
2022-10-11T19:20:36.664Z,17.43
2022-10-11T19:23:04.808Z,17.43
2022-10-11T19:25:37.161Z,17.37
2022-10-11T19:28:06.516Z,17.40
2022-10-11T19:30:34.567Z,17.30
2022-10-11T19:33:04.801Z,17.43
2022-10-11T19:35:32.339Z,17.40
2022-10-11T19:38:00.947Z,17.38
2022-10-11T19:40:30.314Z,17.32
2022-10-11T19:43:01.106Z,17.36
2022-10-11T19:45:28.642Z,17.36
2022-10-11T19:47:59.175Z,17.29
2022-10-11T19:50:29.312Z,17.29
2022-10-11T19:52:58.272Z,17.38
2022-10-11T19:55:28.899Z,17.50
2022-10-11T19:57:58.755Z,17.49
2022-10-11T20:00:29.320Z,17.42
2022-10-11T20:02:58.397Z,17.50
2022-10-11T20:05:26.443Z,17.37
2022-10-11T20:07:54.385Z,17.43
2022-10-11T20:10:22.371Z,17.38
2022-10-11T20:12:50.025Z,17.28
2022-10-11T20:15:17.553Z,17.27
2022-10-11T20:17:48.330Z,17.18
2022-10-11T20:20:20.855Z,17.26
2022-10-11T20:22:48.406Z,17.25
2022-10-11T20:25:16.269Z,17.23
2022-10-11T20:27:47.074Z,17.28
2022-10-11T20:30:15.195Z,17.26
2022-10-11T20:32:43.377Z,17.22
2022-10-11T20:35:10.934Z,17.21
2022-10-11T20:37:38.629Z,17.14
2022-10-11T20:40:06.608Z,17.16
2022-10-11T20:42:34.238Z,17.40
2022-10-11T20:45:01.765Z,17.27
2022-10-11T20:47:29.281Z,17.25
2022-10-11T20:49:56.875Z,17.17
2022-10-11T20:52:26.996Z,17.16
2022-10-11T20:54:54.670Z,17.12
2022-10-11T20:57:24.758Z,17.23
2022-10-11T20:59:55.366Z,17.22
2022-10-11T21:02:23.611Z,17.16
2022-10-11T21:04:52.154Z,17.10
2022-10-11T21:07:21.108Z,17.13
2022-10-11T21:09:48.715Z,17.17
2022-10-11T21:12:16.207Z,17.08
2022-10-11T21:14:43.788Z,17.14
2022-10-11T21:17:12.310Z,17.14
2022-10-11T21:19:39.860Z,17.05
2022-10-11T21:22:07.505Z,16.97
2022-10-11T21:24:35.351Z,16.98
2022-10-11T21:27:03.020Z,16.84
2022-10-11T21:29:30.721Z,16.86
2022-10-11T21:31:58.258Z,16.89
2022-10-11T21:34:25.754Z,16.94
2022-10-11T21:36:53.340Z,17.34
2022-10-11T21:39:20.981Z,17.14
2022-10-11T21:41:48.585Z,17.14
2022-10-11T21:44:16.242Z,17.15
2022-10-11T21:47:07.149Z,16.94
2022-10-11T21:49:34.076Z,16.83
2022-10-11T21:52:02.014Z,16.76
2022-10-11T21:54:29.605Z,16.84
2022-10-11T21:56:57.084Z,16.84
2022-10-11T21:59:24.701Z,16.98
2022-10-11T22:01:55.975Z,16.91
2022-10-11T22:04:27.035Z,16.95
2022-10-11T22:06:54.522Z,16.61
2022-10-11T22:09:22.687Z,16.51
2022-10-11T22:11:50.146Z,16.52
2022-10-11T22:14:18.056Z,16.46
2022-10-11T22:16:45.634Z,16.37
2022-10-11T22:19:13.148Z,16.62
2022-10-11T22:21:44.881Z,16.73
2022-10-11T22:24:13.445Z,16.69
2022-10-11T22:26:41.007Z,16.59
2022-10-11T22:29:08.729Z,16.56
2022-10-11T22:31:36.691Z,16.53
2022-10-11T22:34:04.497Z,16.59
2022-10-11T22:36:33.621Z,16.53
2022-10-11T22:39:01.304Z,16.53
2022-10-11T22:41:28.805Z,16.47
2022-10-11T22:43:56.515Z,16.49
2022-10-11T22:46:23.999Z,16.45
2022-10-11T22:48:51.488Z,16.45
2022-10-11T22:51:19.211Z,16.41
2022-10-11T22:53:46.762Z,16.41
2022-10-11T22:56:14.289Z,16.45
2022-10-11T22:58:41.947Z,16.45
2022-10-11T23:01:12.758Z,16.37
2022-10-11T23:03:40.827Z,16.36
2022-10-11T23:06:08.805Z,16.32
2022-10-11T23:08:36.398Z,16.32
2022-10-11T23:11:06.130Z,16.36
2022-10-11T23:13:34.338Z,16.30
2022-10-11T23:16:08.129Z,16.27
2022-10-11T23:18:36.417Z,16.29
2022-10-11T23:21:05.098Z,16.22
2022-10-11T23:23:32.870Z,16.29
2022-10-11T23:26:04.509Z,16.28
2022-10-11T23:28:35.928Z,16.34
2022-10-11T23:31:12.970Z,16.39
2022-10-11T23:33:40.840Z,16.27
2022-10-11T23:36:17.014Z,16.43
2022-10-11T23:38:45.164Z,16.46
2022-10-11T23:41:12.818Z,16.78
2022-10-11T23:43:40.375Z,16.60
2022-10-11T23:46:07.916Z,16.44
2022-10-11T23:48:35.480Z,16.47
2022-10-11T23:51:06.202Z,16.45
2022-10-11T23:53:34.620Z,16.39
2022-10-11T23:56:02.336Z,16.56
2022-10-11T23:58:29.926Z,16.50
